Time;durP1;ratioP1;P1;durP2;ratioP2;P2;SDS_P1;SDS_P2;PMS_P1;PMS_P2;Temp;Humidity;BMP_temperature;BMP_pressure;BME280_temperature;BME280_humidity;BME280_pressure;Samples;Min_cycle;Max_cycle;Signal;HPM_P1;HPM_P2
2023/05/20 00:00:01;;;;;;;3.10;2.30;;;17.20;51.50;;;;;;5071829;28;20453;-57
2023/05/20 00:02:27;;;;;;;6.17;2.77;;;17.20;51.70;;;;;;5054245;28;20485;-57
2023/05/20 00:04:54;;;;;;;4.00;2.40;;;17.10;51.80;;;;;;5053847;28;20492;-57
2023/05/20 00:07:21;;;;;;;3.10;2.30;;;17.10;52.10;;;;;;5053637;28;20449;-56
2023/05/20 00:09:48;;;;;;;2.93;2.40;;;17.00;52.10;;;;;;5053252;28;20469;-56
2023/05/20 00:12:14;;;;;;;4.50;2.73;;;17.00;52.50;;;;;;5053700;28;20448;-56
2023/05/20 00:14:41;;;;;;;2.70;2.50;;;16.90;52.40;;;;;;5053476;28;20469;-56
2023/05/20 00:17:09;;;;;;;2.70;2.50;;;16.90;52.80;;;;;;5053447;28;20457;-56
2023/05/20 00:19:36;;;;;;;3.60;2.60;;;16.90;52.90;;;;;;5053540;28;20452;-57
2023/05/20 00:22:02;;;;;;;2.80;2.60;;;16.70;52.90;;;;;;5053716;28;20446;-57
2023/05/20 00:24:29;;;;;;;3.13;2.77;;;16.70;53.20;;;;;;5053335;28;20488;-57
2023/05/20 00:26:56;;;;;;;2.97;2.37;;;16.60;53.30;;;;;;5053447;28;20449;-57
2023/05/20 00:29:22;;;;;;;4.90;2.90;;;16.50;53.60;;;;;;5053315;28;20457;-56
2023/05/20 00:31:49;;;;;;;3.03;2.73;;;16.50;53.80;;;;;;5053393;28;20465;-57
2023/05/20 00:34:17;;;;;;;2.77;2.57;;;16.40;54.00;;;;;;5052969;28;20516;-57
2023/05/20 00:36:44;;;;;;;3.03;2.57;;;16.20;54.10;;;;;;5053359;28;20491;-57
2023/05/20 00:39:10;;;;;;;2.53;2.33;;;16.20;54.40;;;;;;5053285;28;20446;-57
2023/05/20 00:41:37;;;;;;;4.07;2.63;;;16.10;54.80;;;;;;5053322;28;20499;-56
2023/05/20 00:44:04;;;;;;;5.30;3.10;;;16.00;55.00;;;;;;5053348;28;20561;-57
2023/05/20 00:46:31;;;;;;;3.77;3.20;;;15.90;55.20;;;;;;5053264;28;20479;-56
2023/05/20 00:48:58;;;;;;;4.03;2.63;;;15.90;55.80;;;;;;5053213;28;20453;-57
2023/05/20 00:51:26;;;;;;;2.90;2.50;;;15.80;56.00;;;;;;5053428;28;20441;-57
2023/05/20 00:53:53;;;;;;;3.77;3.17;;;15.70;56.10;;;;;;5053366;28;20471;-57
2023/05/20 00:56:20;;;;;;;3.23;2.63;;;15.70;56.30;;;;;;5053209;28;20473;-57
2023/05/20 00:58:47;;;;;;;3.07;2.77;;;15.60;56.70;;;;;;5053364;28;20936;-56
2023/05/20 01:01:14;;;;;;;2.90;2.70;;;15.50;57.00;;;;;;5053068;28;20445;-56
2023/05/20 01:03:41;;;;;;;5.00;3.10;;;15.50;57.10;;;;;;5052982;28;20481;-57
2023/05/20 01:06:07;;;;;;;3.43;2.97;;;15.50;57.60;;;;;;5055074;28;20477;-57
2023/05/20 01:08:35;;;;;;;3.30;3.00;;;15.40;57.60;;;;;;5054457;28;20457;-56
2023/05/20 01:11:07;;;;;;;4.10;3.00;;;15.50;58.00;;;;;;5054904;28;20815;-57
2023/05/20 01:13:41;;;;;;;5.33;3.10;;;15.40;58.20;;;;;;5053697;28;20792;-57
2023/05/20 01:16:10;;;;;;;3.20;2.90;;;15.40;58.50;;;;;;5062260;28;20854;-56
2023/05/20 01:18:39;;;;;;;3.53;3.00;;;15.40;58.70;;;;;;5073043;28;20481;-57
2023/05/20 01:21:09;;;;;;;2.87;2.57;;;15.40;58.80;;;;;;5072928;28;20474;-56
2023/05/20 01:23:40;;;;;;;4.13;3.00;;;15.30;58.80;;;;;;5076223;28;20480;-57
2023/05/20 01:26:07;;;;;;;3.20;2.70;;;15.30;59.10;;;;;;5076683;28;20471;-57
2023/05/20 01:28:34;;;;;;;3.47;2.80;;;15.30;59.10;;;;;;5076678;28;20449;-57
2023/05/20 01:31:04;;;;;;;5.57;2.60;;;15.30;59.30;;;;;;5076692;28;20498;-57
2023/05/20 01:33:34;;;;;;;2.87;2.60;;;15.30;59.60;;;;;;5076651;28;20482;-57
2023/05/20 01:36:01;;;;;;;4.57;2.60;;;15.30;59.80;;;;;;5076180;28;20986;-57
2023/05/20 01:38:29;;;;;;;2.60;2.27;;;15.30;60.00;;;;;;5076497;28;20448;-57
2023/05/20 01:40:57;;;;;;;3.60;2.70;;;15.30;60.10;;;;;;5076508;28;20515;-57
2023/05/20 01:43:25;;;;;;;4.87;3.10;;;15.30;60.30;;;;;;5076062;28;20534;-56
2023/05/20 01:45:52;;;;;;;3.47;3.17;;;15.30;60.30;;;;;;5076364;28;20465;-57
2023/05/20 01:48:19;;;;;;;3.10;2.80;;;15.30;60.50;;;;;;5076396;28;20456;-57
2023/05/20 01:50:45;;;;;;;4.07;2.93;;;15.30;60.30;;;;;;5076298;28;20474;-57
2023/05/20 01:53:12;;;;;;;3.40;3.10;;;15.30;60.40;;;;;;5076322;28;20486;-57
2023/05/20 01:55:39;;;;;;;3.60;2.80;;;15.30;60.80;;;;;;5076140;28;20490;-57
2023/05/20 01:58:07;;;;;;;4.27;2.83;;;15.30;60.90;;;;;;5076049;28;20476;-56
2023/05/20 02:00:34;;;;;;;4.03;2.50;;;15.30;61.10;;;;;;5076134;28;20441;-57
2023/05/20 02:03:02;;;;;;;3.33;2.93;;;15.30;61.00;;;;;;5076025;28;20444;-57
2023/05/20 02:05:29;;;;;;;6.90;2.63;;;15.20;61.20;;;;;;5075874;28;20559;-56
2023/05/20 02:07:55;;;;;;;3.80;2.67;;;15.20;61.40;;;;;;5075539;28;20946;-57
2023/05/20 02:10:22;;;;;;;3.93;2.50;;;15.20;61.60;;;;;;5075974;28;20437;-57
2023/05/20 02:12:49;;;;;;;3.80;2.57;;;15.20;61.70;;;;;;5076095;28;20445;-57
2023/05/20 02:15:17;;;;;;;3.23;2.87;;;15.20;61.90;;;;;;5075779;28;20468;-57
2023/05/20 02:17:44;;;;;;;6.60;3.10;;;15.20;62.10;;;;;;5076012;28;20445;-57
2023/05/20 02:20:12;;;;;;;4.60;3.50;;;15.20;62.20;;;;;;5076242;28;20452;-57
2023/05/20 02:22:39;;;;;;;4.23;2.73;;;15.20;62.30;;;;;;5075690;28;20449;-57
2023/05/20 02:25:07;;;;;;;5.50;3.70;;;15.10;62.50;;;;;;5075531;28;20488;-57
2023/05/20 02:27:33;;;;;;;3.53;3.13;;;15.10;62.40;;;;;;5075549;28;20460;-57
2023/05/20 02:30:00;;;;;;;3.03;2.60;;;15.10;62.80;;;;;;5075327;28;20855;-57
2023/05/20 02:32:28;;;;;;;4.30;2.97;;;15.10;62.90;;;;;;5075523;28;20448;-57
2023/05/20 02:34:55;;;;;;;4.80;2.80;;;15.00;63.00;;;;;;5074270;28;20461;-57
2023/05/20 02:37:22;;;;;;;2.93;2.40;;;15.00;63.50;;;;;;5075698;28;20449;-57
2023/05/20 02:39:49;;;;;;;3.70;2.47;;;15.00;63.50;;;;;;5075383;28;20456;-57
2023/05/20 02:42:15;;;;;;;4.33;3.07;;;15.00;63.90;;;;;;5075355;28;20475;-56
2023/05/20 02:44:42;;;;;;;2.87;2.30;;;15.00;64.00;;;;;;5075167;28;20495;-56
2023/05/20 02:47:09;;;;;;;3.60;2.77;;;15.00;64.10;;;;;;5075745;28;20457;-57
2023/05/20 02:49:37;;;;;;;4.63;2.63;;;15.00;64.70;;;;;;5075340;28;20453;-57
2023/05/20 02:52:05;;;;;;;3.70;2.43;;;14.90;64.20;;;;;;5075160;28;20448;-57
2023/05/20 02:54:31;;;;;;;3.50;3.07;;;14.90;64.50;;;;;;5075074;28;20444;-57
2023/05/20 02:56:58;;;;;;;4.50;3.03;;;14.90;64.80;;;;;;5075044;28;20448;-57
2023/05/20 02:59:24;;;;;;;3.33;2.73;;;14.90;65.00;;;;;;5075018;28;20452;-57
2023/05/20 03:01:51;;;;;;;3.77;2.90;;;14.90;65.10;;;;;;5074598;28;20447;-56
2023/05/20 03:04:20;;;;;;;5.53;2.87;;;14.90;65.20;;;;;;5074650;28;21021;-56
2023/05/20 03:06:52;;;;;;;4.37;2.90;;;14.90;65.30;;;;;;5074841;28;20788;-57
2023/05/20 03:09:19;;;;;;;4.37;2.93;;;14.90;65.50;;;;;;5074540;28;20460;-57
2023/05/20 03:11:46;;;;;;;3.23;2.93;;;14.90;65.80;;;;;;5074668;28;20455;-57
2023/05/20 03:14:13;;;;;;;5.07;3.33;;;14.90;66.00;;;;;;5074672;28;20483;-57
2023/05/20 03:16:40;;;;;;;2.93;2.73;;;14.80;65.80;;;;;;5074625;28;20472;-57
2023/05/20 03:19:07;;;;;;;3.70;3.30;;;14.80;66.00;;;;;;5074676;28;20487;-57
2023/05/20 03:21:33;;;;;;;6.13;3.13;;;14.80;66.50;;;;;;5074563;28;20452;-57
2023/05/20 03:24:01;;;;;;;5.07;3.17;;;14.70;66.60;;;;;;5074504;28;20626;-56
2023/05/20 03:26:29;;;;;;;3.87;2.90;;;14.70;66.70;;;;;;5074436;28;20471;-56
2023/05/20 03:28:56;;;;;;;4.73;3.10;;;14.70;66.90;;;;;;5074606;28;20899;-56
2023/05/20 03:31:22;;;;;;;4.10;3.13;;;14.70;67.10;;;;;;5074442;28;20448;-56
2023/05/20 03:33:49;;;;;;;3.00;2.80;;;14.70;67.30;;;;;;5074242;28;20449;-56
2023/05/20 03:36:16;;;;;;;2.50;2.30;;;14.70;67.30;;;;;;5074244;28;20496;-57
2023/05/20 03:38:42;;;;;;;8.03;3.50;;;14.60;67.20;;;;;;5073947;28;20938;-57
2023/05/20 03:41:11;;;;;;;8.43;3.40;;;14.60;67.60;;;;;;5073800;28;20851;-57
2023/05/20 03:43:37;;;;;;;3.30;2.90;;;14.60;67.60;;;;;;5074033;28;20480;-57
2023/05/20 03:46:04;;;;;;;4.10;2.97;;;14.60;67.90;;;;;;5073692;28;20483;-56
2023/05/20 03:48:31;;;;;;;10.57;3.50;;;14.60;67.90;;;;;;5073989;28;20456;-56
2023/05/20 03:50:57;;;;;;;3.53;2.73;;;14.60;67.90;;;;;;5073949;28;20448;-56
2023/05/20 03:53:24;;;;;;;3.77;3.20;;;14.60;68.10;;;;;;5074230;28;20449;-56
2023/05/20 03:55:51;;;;;;;4.40;3.50;;;14.60;68.20;;;;;;5073838;28;20460;-57
2023/05/20 03:58:21;;;;;;;5.40;3.37;;;14.60;68.30;;;;;;5073942;28;20444;-57
2023/05/20 04:00:47;;;;;;;4.73;3.50;;;14.60;68.40;;;;;;5073770;28;20449;-57
2023/05/20 04:03:14;;;;;;;4.27;3.87;;;14.60;68.40;;;;;;5073781;28;20848;-57
2023/05/20 04:05:41;;;;;;;4.40;3.50;;;14.60;68.60;;;;;;5074094;28;20481;-57
2023/05/20 04:08:08;;;;;;;7.70;3.70;;;14.50;68.70;;;;;;5073530;28;20465;-57
2023/05/20 04:10:35;;;;;;;6.07;4.30;;;14.50;68.80;;;;;;5074343;28;20425;-57
2023/05/20 04:13:02;;;;;;;4.83;3.60;;;14.50;69.00;;;;;;5073647;28;20448;-57
2023/05/20 04:15:30;;;;;;;4.43;3.50;;;14.60;69.40;;;;;;5073548;28;20472;-57
2023/05/20 04:17:57;;;;;;;4.20;3.67;;;14.60;69.40;;;;;;5073738;28;20452;-57
2023/05/20 04:20:23;;;;;;;5.07;3.30;;;14.60;69.10;;;;;;5073521;28;20456;-57
2023/05/20 04:22:51;;;;;;;4.70;4.30;;;14.60;69.00;;;;;;5073584;28;20484;-57
2023/05/20 04:25:18;;;;;;;3.97;3.67;;;14.60;69.00;;;;;;5073449;28;20493;-57
2023/05/20 04:27:44;;;;;;;3.93;3.10;;;14.60;69.50;;;;;;5073486;28;20502;-57
2023/05/20 04:30:12;;;;;;;6.20;3.00;;;14.60;69.60;;;;;;5073193;28;20445;-56
2023/05/20 04:32:41;;;;;;;3.60;2.80;;;14.70;69.50;;;;;;5073458;28;20455;-57
2023/05/20 04:35:10;;;;;;;4.20;3.80;;;14.70;69.40;;;;;;5073098;28;21050;-57
2023/05/20 04:37:37;;;;;;;3.13;2.87;;;14.70;69.70;;;;;;5073366;28;20448;-57
2023/05/20 04:40:05;;;;;;;5.03;2.70;;;14.70;69.70;;;;;;5073447;28;20452;-57
2023/05/20 04:42:32;;;;;;;3.23;2.60;;;14.70;69.80;;;;;;5073320;28;20457;-57
2023/05/20 04:45:00;;;;;;;5.37;4.10;;;14.80;70.30;;;;;;5073142;28;20493;-57
2023/05/20 04:47:27;;;;;;;4.90;3.13;;;14.80;70.20;;;;;;5073542;28;20456;-57
2023/05/20 04:49:56;;;;;;;3.47;3.00;;;14.80;70.20;;;;;;5073253;28;20447;-56
2023/05/20 04:52:23;;;;;;;8.73;3.60;;;14.80;69.90;;;;;;5073280;28;20507;-57
2023/05/20 04:54:50;;;;;;;5.03;3.00;;;14.90;69.80;;;;;;5073114;28;20469;-57
2023/05/20 04:57:19;;;;;;;8.37;3.50;;;14.80;70.00;;;;;;5074527;28;20449;-57
2023/05/20 04:59:46;;;;;;;3.57;3.23;;;14.90;70.20;;;;;;5077457;28;20472;-56
2023/05/20 05:02:13;;;;;;;3.67;2.83;;;14.90;70.10;;;;;;5077006;28;20938;-57
2023/05/20 05:04:40;;;;;;;2.97;2.77;;;15.00;70.10;;;;;;5076933;28;20977;-57
2023/05/20 05:07:08;;;;;;;4.80;2.93;;;15.00;70.40;;;;;;5077105;28;20444;-57
2023/05/20 05:09:35;;;;;;;3.50;2.60;;;15.10;70.80;;;;;;5076808;28;20451;-57
2023/05/20 05:12:01;;;;;;;3.87;2.90;;;15.10;70.80;;;;;;5077003;28;20456;-57
2023/05/20 05:14:28;;;;;;;4.43;2.67;;;15.20;70.60;;;;;;5076677;28;20955;-56
2023/05/20 05:16:55;;;;;;;3.77;3.33;;;15.20;70.60;;;;;;5077172;28;20448;-57
2023/05/20 05:19:21;;;;;;;3.53;3.17;;;15.20;70.20;;;;;;5076536;28;21003;-57
2023/05/20 05:21:48;;;;;;;2.87;2.67;;;15.30;70.70;;;;;;5076865;28;20448;-57
2023/05/20 05:24:16;;;;;;;3.27;2.97;;;15.30;70.30;;;;;;5077052;28;20475;-56
2023/05/20 05:26:43;;;;;;;4.47;3.00;;;15.30;69.80;;;;;;5076788;28;20535;-57
2023/05/20 05:29:09;;;;;;;4.27;3.13;;;15.40;71.10;;;;;;5076704;28;20447;-57
2023/05/20 05:31:36;;;;;;;3.50;3.20;;;15.50;70.30;;;;;;5076351;28;20501;-57
2023/05/20 05:34:03;;;;;;;4.60;2.57;;;15.50;70.10;;;;;;5076284;28;20999;-57
2023/05/20 05:36:32;;;;;;;3.17;2.87;;;15.60;70.00;;;;;;5076443;28;20495;-57
2023/05/20 05:38:59;;;;;;;3.30;3.00;;;15.60;70.50;;;;;;5076298;28;20801;-56
2023/05/20 05:41:27;;;;;;;4.30;2.60;;;15.60;69.50;;;;;;5076447;28;20472;-56
2023/05/20 05:43:54;;;;;;;6.83;2.60;;;15.70;69.70;;;;;;5076293;28;20448;-57
2023/05/20 05:46:20;;;;;;;3.53;3.10;;;15.70;69.50;;;;;;5075991;28;21008;-57
2023/05/20 05:48:49;;;;;;;2.97;2.50;;;15.90;69.90;;;;;;5076084;28;20453;-57
2023/05/20 05:51:16;;;;;;;4.00;2.90;;;16.00;70.00;;;;;;5076322;28;20448;-57
2023/05/20 05:53:42;;;;;;;4.30;2.60;;;16.00;70.10;;;;;;5075979;28;20992;-57
2023/05/20 05:56:09;;;;;;;4.23;3.00;;;16.10;70.10;;;;;;5076067;28;20475;-57
2023/05/20 05:58:38;;;;;;;3.80;3.07;;;16.20;69.80;;;;;;5076174;28;20494;-57
2023/05/20 06:01:04;;;;;;;3.20;2.60;;;16.20;69.30;;;;;;5075768;28;20453;-57
2023/05/20 06:03:31;;;;;;;4.20;3.10;;;16.30;69.10;;;;;;5076113;28;20456;-57
2023/05/20 06:05:58;;;;;;;5.30;3.40;;;16.40;68.30;;;;;;5075614;28;20856;-57
2023/05/20 06:08:25;;;;;;;5.57;2.87;;;16.40;68.30;;;;;;5075480;28;20471;-57
2023/05/20 06:10:52;;;;;;;2.67;2.47;;;16.50;68.90;;;;;;5075876;28;20494;-57
2023/05/20 06:13:18;;;;;;;7.30;3.30;;;16.60;68.80;;;;;;5075588;28;20935;-57
2023/05/20 06:15:48;;;;;;;5.00;2.57;;;16.60;68.70;;;;;;5075677;28;20981;-57
2023/05/20 06:18:15;;;;;;;3.80;3.00;;;16.70;68.80;;;;;;5075941;28;20445;-57
2023/05/20 06:20:42;;;;;;;4.00;3.50;;;16.90;69.10;;;;;;5075749;28;20825;-57
2023/05/20 06:23:08;;;;;;;3.20;2.90;;;17.00;68.40;;;;;;5075725;28;20448;-57
2023/05/20 06:25:35;;;;;;;2.90;2.40;;;17.00;67.40;;;;;;5075790;28;20481;-57
2023/05/20 06:28:02;;;;;;;3.60;3.30;;;17.10;67.30;;;;;;5075615;28;20448;-57
2023/05/20 06:30:28;;;;;;;4.00;3.10;;;17.20;67.90;;;;;;5075575;28;20449;-57
2023/05/20 06:32:56;;;;;;;6.00;3.80;;;17.30;67.30;;;;;;5075554;28;20452;-57
2023/05/20 06:35:23;;;;;;;3.40;3.10;;;17.30;66.20;;;;;;5075434;28;20461;-57
2023/05/20 06:37:50;;;;;;;4.37;3.37;;;17.40;65.50;;;;;;5075083;28;20985;-57
2023/05/20 06:40:17;;;;;;;4.83;3.00;;;17.60;65.30;;;;;;5075138;28;20961;-57
2023/05/20 06:42:43;;;;;;;5.40;2.90;;;17.60;64.80;;;;;;5075377;28;20459;-57
2023/05/20 06:45:12;;;;;;;3.10;2.70;;;17.70;65.00;;;;;;5075187;28;20542;-57
2023/05/20 06:47:39;;;;;;;3.90;2.83;;;17.80;64.90;;;;;;5075271;28;20543;-57
2023/05/20 06:50:08;;;;;;;3.30;2.97;;;17.80;64.30;;;;;;5074890;28;20828;-57
2023/05/20 06:52:34;;;;;;;3.73;2.60;;;17.90;63.90;;;;;;5075167;28;20448;-57
2023/05/20 06:55:01;;;;;;;3.47;2.80;;;18.00;64.00;;;;;;5075037;28;20465;-57
2023/05/20 06:57:28;;;;;;;2.67;2.47;;;18.10;64.60;;;;;;5075085;28;20445;-57
2023/05/20 06:59:55;;;;;;;3.67;3.30;;;18.20;63.80;;;;;;5074665;28;20829;-57
2023/05/20 07:02:22;;;;;;;5.10;2.90;;;18.30;63.40;;;;;;5074951;28;20441;-57
2023/05/20 07:04:49;;;;;;;3.07;2.80;;;18.50;63.20;;;;;;5074744;28;20524;-57
2023/05/20 07:07:17;;;;;;;4.33;2.63;;;18.70;62.90;;;;;;5074869;28;20452;-57
2023/05/20 07:09:43;;;;;;;6.53;2.67;;;18.90;62.50;;;;;;5072297;28;20458;-56
2023/05/20 07:12:10;;;;;;;4.10;2.60;;;19.10;61.20;;;;;;5054454;28;20449;-57
2023/05/20 07:14:37;;;;;;;2.47;2.27;;;19.30;60.90;;;;;;5054702;28;20466;-57
2023/05/20 07:17:04;;;;;;;4.30;2.80;;;19.50;60.50;;;;;;5054488;28;20830;-57
2023/05/20 07:19:32;;;;;;;3.07;2.77;;;19.70;59.90;;;;;;5053821;28;20936;-57
2023/05/20 07:21:59;;;;;;;2.77;2.57;;;19.90;59.00;;;;;;5054443;28;20454;-56
2023/05/20 07:24:27;;;;;;;2.90;2.60;;;20.00;58.70;;;;;;5054537;28;20449;-57
2023/05/20 07:26:54;;;;;;;3.00;2.50;;;20.00;58.20;;;;;;5054235;28;21022;-57
2023/05/20 07:29:21;;;;;;;2.70;2.50;;;20.00;57.90;;;;;;5054344;28;20457;-56
2023/05/20 07:31:48;;;;;;;2.70;2.50;;;20.10;57.90;;;;;;5054435;28;20507;-57
2023/05/20 07:34:14;;;;;;;3.30;2.40;;;20.20;57.60;;;;;;5054447;28;20454;-57
2023/05/20 07:36:42;;;;;;;4.40;3.33;;;20.30;57.60;;;;;;5054317;28;20441;-57
2023/05/20 07:39:09;;;;;;;3.63;2.63;;;20.40;57.40;;;;;;5054250;28;20457;-57
2023/05/20 07:41:37;;;;;;;5.03;3.17;;;20.40;56.50;;;;;;5054402;28;20540;-57
2023/05/20 07:44:05;;;;;;;4.03;2.97;;;20.60;56.40;;;;;;5053840;28;20886;-57
2023/05/20 07:46:32;;;;;;;3.53;3.10;;;20.70;56.10;;;;;;5054130;28;20539;-57
2023/05/20 07:48:59;;;;;;;5.10;3.03;;;20.90;56.00;;;;;;5054087;28;20452;-57
2023/05/20 07:51:25;;;;;;;3.97;3.00;;;21.00;55.50;;;;;;5054080;28;20456;-57
2023/05/20 07:53:52;;;;;;;4.60;3.10;;;21.10;55.40;;;;;;5054008;28;20456;-57
2023/05/20 07:56:19;;;;;;;4.17;2.80;;;21.20;55.70;;;;;;5053977;28;20496;-57
2023/05/20 07:58:53;;;;;;;4.20;3.17;;;21.30;54.80;;;;;;5053569;28;20818;-57
2023/05/20 08:01:20;;;;;;;3.50;2.60;;;21.30;54.20;;;;;;5053898;28;20469;-57
2023/05/20 08:03:47;;;;;;;3.30;2.93;;;21.40;54.20;;;;;;5054015;28;20449;-57
2023/05/20 08:06:14;;;;;;;3.07;2.77;;;21.60;54.60;;;;;;5053660;28;20551;-57
2023/05/20 08:08:41;;;;;;;4.50;2.67;;;21.80;53.90;;;;;;5053434;28;20479;-57
2023/05/20 08:11:08;;;;;;;2.80;2.07;;;21.90;53.20;;;;;;5053652;28;20446;-57
2023/05/20 08:13:35;;;;;;;3.80;2.67;;;22.00;52.80;;;;;;5053656;28;20445;-57
2023/05/20 08:16:04;;;;;;;8.90;3.50;;;22.10;52.40;;;;;;5053279;28;20469;-57
2023/05/20 08:18:32;;;;;;;3.43;2.93;;;22.30;52.30;;;;;;5053878;28;20446;-57
2023/05/20 08:20:59;;;;;;;4.03;2.83;;;22.40;51.80;;;;;;5053630;28;20561;-57
2023/05/20 08:23:26;;;;;;;3.17;2.80;;;22.60;51.50;;;;;;5053569;28;20472;-57
2023/05/20 08:25:53;;;;;;;3.40;3.00;;;22.70;51.00;;;;;;5053400;28;20563;-57
2023/05/20 08:28:20;;;;;;;2.93;2.70;;;22.80;50.60;;;;;;5053454;28;20461;-57
2023/05/20 08:30:47;;;;;;;4.90;2.60;;;22.90;50.70;;;;;;5052885;28;20996;-57
2023/05/20 08:33:16;;;;;;;2.67;2.47;;;23.00;50.30;;;;;;5052734;28;20504;-57
2023/05/20 08:35:43;;;;;;;5.97;3.23;;;23.10;50.30;;;;;;5053273;28;20465;-57
2023/05/20 08:38:09;;;;;;;5.73;3.53;;;23.20;50.00;;;;;;5053389;28;20449;-57
2023/05/20 08:40:36;;;;;;;3.57;3.27;;;23.30;50.00;;;;;;5053041;28;20445;-57
2023/05/20 08:43:04;;;;;;;4.47;2.73;;;23.50;49.70;;;;;;5053278;28;20879;-57
2023/05/20 08:45:33;;;;;;;5.10;3.00;;;23.50;48.80;;;;;;5053310;28;20512;-57
2023/05/20 08:48:00;;;;;;;4.27;3.20;;;23.60;48.50;;;;;;5053569;28;20449;-57
2023/05/20 08:50:28;;;;;;;5.83;2.70;;;23.70;48.50;;;;;;5053250;28;20900;-57
2023/05/20 08:52:55;;;;;;;3.77;3.00;;;23.80;48.50;;;;;;5053186;28;20442;-57
2023/05/20 08:55:26;;;;;;;3.60;3.30;;;24.00;48.10;;;;;;5052860;28;20834;-57
2023/05/20 08:57:54;;;;;;;3.10;2.90;;;24.10;47.50;;;;;;5052784;28;20805;-57
2023/05/20 09:00:25;;;;;;;4.03;3.07;;;24.30;47.50;;;;;;5053107;28;20481;-57
2023/05/20 09:02:53;;;;;;;5.07;2.73;;;24.50;47.80;;;;;;5053166;28;20430;-57
2023/05/20 09:05:21;;;;;;;3.03;2.70;;;24.70;47.50;;;;;;5052930;28;20489;-57
2023/05/20 09:07:49;;;;;;;4.93;3.20;;;24.90;47.00;;;;;;5052875;28;20796;-57
2023/05/20 09:10:16;;;;;;;3.47;3.17;;;25.00;46.20;;;;;;5053013;28;20485;-57
2023/05/20 09:12:43;;;;;;;3.53;3.23;;;25.10;46.00;;;;;;5053020;28;20536;-57
2023/05/20 09:15:10;;;;;;;4.47;3.47;;;25.20;46.10;;;;;;5053011;28;20473;-57
2023/05/20 09:17:37;;;;;;;6.03;3.50;;;25.40;45.20;;;;;;5053089;28;20533;-58
2023/05/20 09:20:08;;;;;;;3.40;3.00;;;25.50;45.50;;;;;;5052745;28;20454;-56
2023/05/20 09:22:35;;;;;;;4.50;3.40;;;25.80;45.80;;;;;;5052930;28;20468;-58
2023/05/20 09:25:03;;;;;;;3.70;3.20;;;26.00;44.80;;;;;;5053009;28;20474;-58
2023/05/20 09:27:30;;;;;;;4.93;3.50;;;26.20;44.50;;;;;;5053525;28;20446;-57
2023/05/20 09:29:56;;;;;;;5.40;3.73;;;26.40;44.20;;;;;;5052967;28;20446;-58
2023/05/20 09:32:26;;;;;;;4.17;3.37;;;26.50;43.40;;;;;;5052954;28;20445;-57
2023/05/20 09:34:53;;;;;;;4.43;3.30;;;26.70;43.40;;;;;;5053071;28;20473;-58
2023/05/20 09:37:22;;;;;;;4.90;3.57;;;27.00;43.40;;;;;;5052706;28;20440;-58
2023/05/20 09:39:58;;;;;;;3.13;2.80;;;27.10;42.10;;;;;;5052988;28;20453;-58
2023/05/20 09:42:31;;;;;;;3.73;3.43;;;27.40;41.70;;;;;;5053098;28;20483;-57
2023/05/20 09:44:58;;;;;;;5.77;3.10;;;27.60;41.50;;;;;;5057079;28;20473;-57
2023/05/20 09:47:25;;;;;;;4.63;4.17;;;27.70;40.80;;;;;;5056620;28;20485;-58
2023/05/20 09:49:53;;;;;;;4.97;3.60;;;27.70;41.00;;;;;;5056460;28;20452;-58
2023/05/20 09:52:20;;;;;;;5.83;3.50;;;27.80;40.30;;;;;;5056304;28;20499;-57
2023/05/20 09:54:47;;;;;;;5.03;4.47;;;28.00;40.70;;;;;;5056232;28;20527;-58
2023/05/20 09:57:14;;;;;;;7.67;4.53;;;28.10;40.00;;;;;;5056280;28;20456;-58
2023/05/20 09:59:43;;;;;;;4.70;3.37;;;28.30;39.80;;;;;;5056350;28;20499;-58
2023/05/20 10:02:10;;;;;;;6.27;3.80;;;28.40;38.70;;;;;;5055965;28;20955;-57
2023/05/20 10:04:42;;;;;;;4.90;4.20;;;28.60;38.50;;;;;;5056066;28;20470;-57
2023/05/20 10:07:33;;;;;;;5.87;3.80;;;28.70;38.80;;;;;;5055993;28;20564;-57
2023/05/20 10:10:07;;;;;;;7.37;4.30;;;28.80;37.80;;;;;;5055777;28;20453;-58
2023/05/20 10:12:40;;;;;;;4.87;3.70;;;29.00;37.90;;;;;;5056098;28;20445;-57
2023/05/20 10:15:16;;;;;;;4.20;3.50;;;29.20;37.10;;;;;;5056830;28;20476;-58
2023/05/20 10:17:52;;;;;;;4.43;4.03;;;29.30;36.80;;;;;;5056258;28;20429;-57
2023/05/20 10:20:19;;;;;;;3.90;3.60;;;29.40;36.20;;;;;;5056116;28;20434;-58
2023/05/20 10:22:56;;;;;;;4.17;3.77;;;29.50;36.10;;;;;;5056200;28;20455;-58
2023/05/20 10:25:26;;;;;;;5.17;3.77;;;29.60;35.70;;;;;;5057147;28;20507;-58
2023/05/20 10:28:03;;;;;;;5.40;4.17;;;29.70;36.00;;;;;;5058190;28;20448;-58
2023/05/20 10:30:31;;;;;;;5.43;3.83;;;29.80;34.70;;;;;;5055623;28;20895;-57
2023/05/20 10:33:03;;;;;;;3.73;3.33;;;29.90;34.90;;;;;;5055675;28;20445;-58
2023/05/20 10:35:31;;;;;;;4.07;3.50;;;29.90;34.60;;;;;;5055534;28;20519;-58
2023/05/20 10:38:08;;;;;;;5.77;4.17;;;29.90;34.50;;;;;;5055517;28;20484;-58
2023/05/20 10:40:35;;;;;;;4.43;4.03;;;29.90;35.00;;;;;;5055400;28;20438;-58
2023/05/20 10:43:10;;;;;;;4.67;3.90;;;29.90;34.90;;;;;;5055364;28;20445;-58
2023/05/20 10:45:48;;;;;;;4.13;3.83;;;29.90;34.70;;;;;;5055252;28;20497;-57
2023/05/20 10:48:21;;;;;;;4.10;3.80;;;30.00;34.50;;;;;;5055311;28;20859;-57
2023/05/20 10:50:48;;;;;;;4.30;3.60;;;30.10;34.20;;;;;;5055270;28;20442;-57
2023/05/20 10:53:15;;;;;;;4.60;4.00;;;30.10;34.90;;;;;;5054889;28;20981;-57
2023/05/20 10:55:50;;;;;;;4.47;4.07;;;30.10;35.00;;;;;;5053822;28;21037;-57
2023/05/20 10:58:17;;;;;;;3.90;3.60;;;30.40;34.70;;;;;;5055110;28;20491;-58
2023/05/20 11:00:45;;;;;;;4.93;4.40;;;30.50;34.20;;;;;;5055011;28;20460;-58
2023/05/20 11:03:14;;;;;;;4.60;4.00;;;30.90;34.20;;;;;;5054986;28;20511;-58
2023/05/20 11:05:40;;;;;;;4.77;3.80;;;31.30;33.10;;;;;;5054725;28;20472;-57
2023/05/20 11:08:08;;;;;;;5.03;4.37;;;31.90;32.70;;;;;;5054519;28;20469;-58
2023/05/20 11:10:35;;;;;;;5.37;3.70;;;32.80;31.00;;;;;;5054568;28;20794;-58
2023/05/20 11:13:03;;;;;;;4.17;3.87;;;33.60;30.20;;;;;;5054814;28;20453;-56
2023/05/20 11:15:32;;;;;;;4.83;4.43;;;34.20;28.90;;;;;;5054676;28;20551;-56
2023/05/20 11:18:02;;;;;;;5.53;5.00;;;34.50;28.10;;;;;;5054676;28;20456;-57
2023/05/20 11:20:30;;;;;;;5.80;4.27;;;34.50;28.20;;;;;;5054517;28;20526;-56
2023/05/20 11:22:56;;;;;;;5.30;4.67;;;34.40;28.00;;;;;;5054514;28;20456;-56
2023/05/20 11:25:23;;;;;;;4.93;4.53;;;34.50;28.20;;;;;;5054514;28;20518;-57
2023/05/20 11:27:50;;;;;;;4.33;3.77;;;34.70;28.20;;;;;;5054371;28;20576;-57
2023/05/20 11:30:19;;;;;;;4.77;4.37;;;34.80;28.00;;;;;;5054354;28;20214;-56
2023/05/20 11:32:57;;;;;;;4.93;4.23;;;34.90;27.50;;;;;;5054408;28;20202;-57
2023/05/20 11:35:27;;;;;;;4.10;3.70;;;35.40;27.50;;;;;;5054317;28;20468;-56
2023/05/20 11:37:56;;;;;;;4.73;4.33;;;35.70;26.70;;;;;;5054369;28;20193;-57
2023/05/20 11:40:26;;;;;;;4.27;3.97;;;35.80;26.30;;;;;;5054326;28;20209;-57
2023/05/20 11:42:57;;;;;;;7.70;5.10;;;35.60;26.30;;;;;;5053847;28;20672;-57
2023/05/20 11:45:24;;;;;;;4.27;3.97;;;35.10;26.30;;;;;;5054203;28;20222;-57
2023/05/20 11:48:01;;;;;;;5.43;5.03;;;34.50;27.00;;;;;;5054090;28;20226;-57
2023/05/20 11:50:33;;;;;;;5.20;4.80;;;34.00;27.70;;;;;;5054045;28;20449;-57
2023/05/20 11:53:02;;;;;;;5.57;5.07;;;33.50;28.10;;;;;;5054188;28;20541;-57
2023/05/20 11:55:31;;;;;;;7.17;4.63;;;33.10;28.50;;;;;;5053971;28;20492;-57
2023/05/20 11:57:58;;;;;;;4.83;4.47;;;33.00;29.10;;;;;;5053973;28;20498;-57
2023/05/20 12:00:25;;;;;;;5.80;5.30;;;32.90;29.00;;;;;;5053526;28;20803;-57
2023/05/20 12:02:52;;;;;;;5.10;4.70;;;32.90;29.30;;;;;;5053874;28;20444;-57
2023/05/20 12:05:19;;;;;;;6.87;5.57;;;32.90;29.20;;;;;;5053753;28;20472;-56
2023/05/20 12:07:47;;;;;;;4.70;4.30;;;33.30;29.40;;;;;;5053468;28;20484;-57
2023/05/20 12:10:13;;;;;;;5.57;5.07;;;34.00;28.40;;;;;;5053748;28;20445;-57
2023/05/20 12:12:40;;;;;;;5.83;5.33;;;34.60;27.90;;;;;;5053565;28;20445;-56
2023/05/20 12:15:07;;;;;;;5.37;4.83;;;35.20;26.40;;;;;;5053590;28;20222;-57
2023/05/20 12:17:45;;;;;;;7.97;4.40;;;35.70;26.50;;;;;;5053647;28;20206;-57
2023/05/20 12:20:14;;;;;;;5.53;4.90;;;36.20;26.30;;;;;;5053650;28;20193;-57
2023/05/20 12:22:41;;;;;;;4.55;4.18;;;36.70;25.80;;;;;;5053537;28;20237;-57
2023/05/20 12:25:11;;;;;;;4.30;4.00;;;37.60;25.60;;;;;;5053170;28;20227;-57
2023/05/20 12:27:38;;;;;;;5.43;4.60;;;38.40;24.70;;;;;;5053539;28;20218;-58
2023/05/20 12:30:06;;;;;;;4.38;4.07;;;39.00;23.50;;;;;;5053434;28;20230;-58
2023/05/20 12:32:33;;;;;;;6.90;4.32;;;39.50;22.60;;;;;;5053080;28;20212;-58
2023/05/20 12:34:59;;;;;;;5.13;4.72;;;39.90;21.90;;;;;;5052952;28;20231;-58
2023/05/20 12:37:26;;;;;;;4.97;4.43;;;40.10;21.70;;;;;;5053032;28;20576;-58
2023/05/20 12:39:53;;;;;;;5.38;4.38;;;40.30;21.80;;;;;;5053326;28;20209;-58
2023/05/20 12:42:21;;;;;;;5.35;4.85;;;40.30;21.40;;;;;;5053217;28;20202;-57
2023/05/20 12:44:48;;;;;;;4.90;4.45;;;40.30;21.60;;;;;;5053214;28;20218;-58
2023/05/20 12:47:15;;;;;;;5.00;4.55;;;39.90;21.40;;;;;;5053141;28;20307;-58
2023/05/20 12:49:41;;;;;;;4.50;4.20;;;39.70;22.00;;;;;;5053214;28;20575;-57